createdAt,value
2023-01-25T00:00:34.348Z,24.37
2023-01-25T00:03:04.321Z,23.60
2023-01-25T00:05:34.157Z,23.57
2023-01-25T00:08:03.924Z,24.27
2023-01-25T00:10:34.028Z,23.25
2023-01-25T00:13:03.802Z,24.73
2023-01-25T00:15:33.610Z,20.70
2023-01-25T00:18:03.682Z,22.93
2023-01-25T00:20:33.780Z,22.27
2023-01-25T00:23:03.551Z,20.63
2023-01-25T00:25:33.333Z,15.93
2023-01-25T00:28:03.097Z,16.20
2023-01-25T00:30:32.967Z,15.63
2023-01-25T00:33:11.613Z,13.97
2023-01-25T00:35:41.426Z,13.93
2023-01-25T00:38:16.529Z,14.00
2023-01-25T00:40:49.119Z,14.87
2023-01-25T00:43:18.931Z,12.70
2023-01-25T00:45:48.846Z,12.03
2023-01-25T00:48:18.687Z,12.63
2023-01-25T00:50:48.577Z,12.57
2023-01-25T00:53:18.210Z,13.63
2023-01-25T00:55:54.583Z,14.73
2023-01-25T00:58:24.417Z,17.00
2023-01-25T01:00:56.177Z,18.55
2023-01-25T01:03:26.226Z,16.97
2023-01-25T01:06:08.788Z,19.57
2023-01-25T01:08:41.446Z,17.83
2023-01-25T01:11:12.743Z,16.97
2023-01-25T01:13:42.569Z,17.03
2023-01-25T01:16:14.682Z,16.77
2023-01-25T01:18:46.356Z,15.53
2023-01-25T01:21:16.329Z,16.30
2023-01-25T01:23:46.241Z,15.80
2023-01-25T01:26:19.165Z,15.93
2023-01-25T01:28:49.552Z,15.50
2023-01-25T01:31:22.845Z,14.40
2023-01-25T01:33:58.524Z,14.35
2023-01-25T01:36:30.754Z,14.47
2023-01-25T01:39:01.323Z,13.67
2023-01-25T01:41:31.291Z,14.30
2023-01-25T01:44:01.360Z,13.47
2023-01-25T01:46:42.508Z,14.03
2023-01-25T01:49:22.262Z,11.73
2023-01-25T01:52:04.254Z,13.93
2023-01-25T01:54:44.733Z,13.40
2023-01-25T01:57:29.419Z,11.60
2023-01-25T02:00:02.032Z,12.28
2023-01-25T02:02:33.703Z,13.13
2023-01-25T02:05:06.881Z,11.97
2023-01-25T02:07:39.590Z,12.27
2023-01-25T02:10:12.564Z,12.27
2023-01-25T02:12:45.513Z,11.23
2023-01-25T02:15:15.550Z,10.40
2023-01-25T02:17:45.464Z,9.10
2023-01-25T02:20:18.313Z,10.80
2023-01-25T02:23:03.115Z,8.13
2023-01-25T02:25:33.358Z,8.03
2023-01-25T02:28:16.427Z,8.18
2023-01-25T02:30:47.029Z,8.80
2023-01-25T02:33:18.504Z,8.93
2023-01-25T02:35:54.368Z,8.70
2023-01-25T02:38:24.067Z,8.57
2023-01-25T02:41:02.007Z,7.93
2023-01-25T02:43:35.047Z,6.87
2023-01-25T02:46:15.254Z,6.75
2023-01-25T02:48:46.654Z,7.30
2023-01-25T02:51:16.491Z,6.85
2023-01-25T02:53:46.240Z,6.37
2023-01-25T02:56:18.095Z,7.22
2023-01-25T02:58:49.855Z,8.18
2023-01-25T03:01:20.918Z,7.70
2023-01-25T03:03:50.965Z,8.78
2023-01-25T03:06:20.791Z,7.83
2023-01-25T03:08:50.695Z,7.40
2023-01-25T03:11:21.970Z,6.95
2023-01-25T03:13:53.070Z,7.07
2023-01-25T03:16:22.647Z,6.97
2023-01-25T03:18:54.834Z,7.63
2023-01-25T03:21:25.301Z,7.27
2023-01-25T03:24:01.300Z,7.33
2023-01-25T03:26:34.495Z,6.90
2023-01-25T03:29:06.366Z,8.60
2023-01-25T03:31:37.792Z,8.53
2023-01-25T03:34:07.389Z,8.73
2023-01-25T03:36:38.873Z,9.95
2023-01-25T03:39:08.629Z,10.33
2023-01-25T03:41:40.120Z,8.83
2023-01-25T03:46:43.896Z,9.48
2023-01-25T03:49:14.131Z,10.48
2023-01-25T03:51:44.617Z,7.72
2023-01-25T03:54:14.379Z,9.43
2023-01-25T03:56:44.123Z,7.40
2023-01-25T03:59:15.394Z,8.67
2023-01-25T04:01:45.795Z,8.40
2023-01-25T04:04:15.392Z,9.57
2023-01-25T04:06:45.872Z,8.50
2023-01-25T04:09:15.611Z,9.50
2023-01-25T04:11:53.025Z,9.07
2023-01-25T04:14:34.942Z,9.00
2023-01-25T04:16:58.778Z,9.13
2023-01-25T04:19:33.041Z,8.07
2023-01-25T04:22:03.711Z,8.03
2023-01-25T04:24:38.028Z,9.37
2023-01-25T04:27:08.955Z,8.40
2023-01-25T04:29:41.930Z,10.03
2023-01-25T04:32:13.766Z,8.47
2023-01-25T04:34:44.232Z,9.50
2023-01-25T04:37:15.809Z,9.18
2023-01-25T04:39:47.259Z,8.97
2023-01-25T04:42:16.738Z,8.00
2023-01-25T04:44:47.660Z,9.03
2023-01-25T04:47:17.228Z,9.23
2023-01-25T04:49:47.653Z,8.23
2023-01-25T04:52:19.171Z,9.20
2023-01-25T04:54:49.179Z,8.20
2023-01-25T04:57:19.214Z,9.13
2023-01-25T04:59:50.677Z,8.10
2023-01-25T05:02:20.824Z,8.10
2023-01-25T05:04:50.784Z,8.17
2023-01-25T05:07:20.897Z,8.43
2023-01-25T05:09:50.711Z,9.77
2023-01-25T05:12:21.130Z,9.97
2023-01-25T05:14:52.674Z,10.43
2023-01-25T05:17:23.471Z,8.95
2023-01-25T05:19:53.296Z,9.33
2023-01-25T05:22:24.683Z,7.93
2023-01-25T05:24:55.555Z,8.18
2023-01-25T05:27:26.975Z,7.80
2023-01-25T05:29:58.819Z,9.53
2023-01-25T05:32:30.309Z,8.87
2023-01-25T05:35:01.047Z,9.50
2023-01-25T05:37:30.960Z,9.20
2023-01-25T05:42:31.566Z,8.35
2023-01-25T05:45:01.825Z,8.55
2023-01-25T05:47:32.348Z,9.20
2023-01-25T05:50:02.147Z,9.93
2023-01-25T05:52:39.646Z,9.78
2023-01-25T05:55:09.761Z,9.67
2023-01-25T05:57:39.632Z,9.07
2023-01-25T06:00:10.143Z,10.10
2023-01-25T06:02:42.252Z,8.63
2023-01-25T06:05:13.687Z,8.40
2023-01-25T06:07:43.938Z,10.50
2023-01-25T06:10:13.780Z,9.47
2023-01-25T06:12:44.050Z,10.32
2023-01-25T06:15:13.545Z,11.50
2023-01-25T06:17:43.405Z,10.03
2023-01-25T06:20:20.260Z,10.47
2023-01-25T06:23:00.345Z,10.20
2023-01-25T06:25:30.107Z,10.43
2023-01-25T06:28:00.018Z,9.77
2023-01-25T06:30:29.784Z,11.17
2023-01-25T06:33:00.289Z,9.27
2023-01-25T06:35:32.261Z,9.80
2023-01-25T06:38:02.447Z,9.40
2023-01-25T06:40:32.206Z,10.47
2023-01-25T06:43:12.708Z,9.53
2023-01-25T06:45:42.673Z,7.87
2023-01-25T06:48:13.755Z,9.10
2023-01-25T06:50:43.566Z,8.28
2023-01-25T06:53:13.204Z,8.77
2023-01-25T06:55:42.958Z,7.90
2023-01-25T06:58:12.473Z,7.07
2023-01-25T07:00:42.230Z,8.07
2023-01-25T07:03:11.799Z,7.57
2023-01-25T07:05:41.562Z,8.40
2023-01-25T07:08:11.041Z,7.83
2023-01-25T07:10:40.791Z,8.70
2023-01-25T07:13:10.339Z,8.20
2023-01-25T07:15:40.095Z,7.03
2023-01-25T07:18:16.253Z,7.07
2023-01-25T07:20:42.204Z,9.10
2023-01-25T07:23:11.997Z,6.43
2023-01-25T07:25:49.407Z,10.33
2023-01-25T07:28:19.188Z,7.87
2023-01-25T07:30:49.514Z,8.23
2023-01-25T07:33:19.343Z,9.23
2023-01-25T07:35:50.913Z,8.97
2023-01-25T07:38:20.608Z,9.10
2023-01-25T07:40:54.249Z,8.43
2023-01-25T07:43:24.015Z,9.30
2023-01-25T07:45:54.342Z,8.23
2023-01-25T07:48:23.983Z,9.27
2023-01-25T07:50:55.397Z,10.57
2023-01-25T07:53:24.899Z,8.95
2023-01-25T07:55:54.721Z,8.70
2023-01-25T07:58:24.504Z,7.92
2023-01-25T08:00:54.440Z,9.40
2023-01-25T08:03:24.235Z,9.85
2023-01-25T08:05:55.107Z,10.77
2023-01-25T08:10:54.384Z,8.73
2023-01-25T08:13:23.926Z,8.00
2023-01-25T08:15:57.045Z,8.70
2023-01-25T08:18:26.823Z,7.63
2023-01-25T08:21:03.814Z,8.20
2023-01-25T08:23:34.135Z,8.05
2023-01-25T08:26:05.850Z,7.30
2023-01-25T08:28:39.080Z,6.90
2023-01-25T08:31:18.421Z,6.80
2023-01-25T08:33:49.197Z,6.67
2023-01-25T08:36:19.697Z,7.40
2023-01-25T08:38:49.750Z,8.13
2023-01-25T08:41:20.522Z,6.45
2023-01-25T08:43:51.994Z,8.08
2023-01-25T08:46:23.149Z,7.58
2023-01-25T08:49:13.096Z,8.43
2023-01-25T08:51:46.272Z,8.80
2023-01-25T08:54:17.016Z,7.60
2023-01-25T08:56:49.919Z,10.18
2023-01-25T08:59:19.777Z,7.47
2023-01-25T09:01:49.892Z,6.58
2023-01-25T09:04:19.430Z,7.10
2023-01-25T09:06:49.246Z,9.03
2023-01-25T09:09:18.732Z,6.40
2023-01-25T09:11:48.481Z,7.77
2023-01-25T09:14:18.037Z,6.77
2023-01-25T09:16:47.773Z,7.13
2023-01-25T09:19:17.269Z,6.13
2023-01-25T09:21:48.276Z,6.50
2023-01-25T09:24:18.220Z,8.25
2023-01-25T09:26:56.087Z,8.23
2023-01-25T09:29:19.796Z,8.28
2023-01-25T09:31:49.665Z,7.83
2023-01-25T09:34:24.016Z,7.42
2023-01-25T09:36:54.040Z,7.28
2023-01-25T09:39:23.738Z,6.43
2023-01-25T09:42:15.567Z,6.97
2023-01-25T09:45:10.659Z,7.03
2023-01-25T09:47:43.760Z,6.53
2023-01-25T09:50:39.047Z,5.97
2023-01-25T09:53:25.468Z,5.80
2023-01-25T09:55:58.873Z,6.47
2023-01-25T09:58:37.578Z,7.47
2023-01-25T10:01:21.781Z,7.57
2023-01-25T10:03:56.442Z,7.45
2023-01-25T10:06:46.118Z,4.85
2023-01-25T10:09:18.555Z,5.27
2023-01-25T10:11:48.531Z,2.80
2023-01-25T10:14:21.376Z,2.90
2023-01-25T10:16:54.249Z,3.07
2023-01-25T10:19:48.040Z,3.17
2023-01-25T10:22:23.547Z,3.23
2023-01-25T10:25:23.787Z,3.37
2023-01-25T10:28:02.495Z,2.77
2023-01-25T10:30:41.072Z,3.23
2023-01-25T10:33:19.116Z,3.23
2023-01-25T10:35:50.541Z,2.87
2023-01-25T10:38:28.822Z,3.63
2023-01-25T10:41:11.028Z,4.83
2023-01-25T10:43:40.720Z,4.60
2023-01-25T10:46:22.384Z,2.67
2023-01-25T10:48:52.222Z,2.77
2023-01-25T10:51:35.656Z,3.42
2023-01-25T10:54:07.528Z,4.03
2023-01-25T10:56:40.327Z,4.40
2023-01-25T10:59:27.959Z,3.90
2023-01-25T11:02:01.435Z,4.40
2023-01-25T11:04:35.155Z,4.08
2023-01-25T11:07:06.607Z,4.47
2023-01-25T11:09:39.110Z,3.67
2023-01-25T11:12:20.369Z,4.17
2023-01-25T11:14:51.431Z,4.30
2023-01-25T11:17:27.496Z,3.87
2023-01-25T11:20:09.449Z,4.43
2023-01-25T11:22:40.900Z,3.70
2023-01-25T11:25:29.656Z,3.98
2023-01-25T11:28:19.888Z,3.40
2023-01-25T11:30:50.800Z,4.37
2023-01-25T11:33:23.247Z,4.37
2023-01-25T11:36:26.407Z,3.87
2023-01-25T11:39:13.636Z,4.33
2023-01-25T11:41:52.106Z,4.20
2023-01-25T11:44:51.802Z,3.47
2023-01-25T11:47:56.971Z,3.57
2023-01-25T11:50:35.673Z,3.98
2023-01-25T11:53:21.649Z,4.10
2023-01-25T11:55:57.034Z,3.60
2023-01-25T11:58:41.630Z,4.47
2023-01-25T12:01:30.586Z,5.60
2023-01-25T12:04:37.553Z,4.70
2023-01-25T12:07:37.217Z,3.87
2023-01-25T12:10:44.447Z,4.00
2023-01-25T12:13:35.176Z,3.10
2023-01-25T12:16:13.006Z,3.55
2023-01-25T12:18:52.064Z,4.30
2023-01-25T12:21:44.159Z,5.87
2023-01-25T12:24:43.826Z,4.28
2023-01-25T12:27:43.592Z,3.60
2023-01-25T12:30:16.127Z,3.70
2023-01-25T12:32:59.486Z,3.92
2023-01-25T12:35:28.965Z,3.63
2023-01-25T12:38:01.784Z,3.50
2023-01-25T12:40:40.167Z,3.93
2023-01-25T12:43:12.680Z,3.83
2023-01-25T12:45:45.196Z,4.63
2023-01-25T12:48:29.938Z,4.27
2023-01-25T12:51:00.645Z,3.07
2023-01-25T12:53:36.252Z,3.83
2023-01-25T12:56:12.752Z,3.98
2023-01-25T12:59:06.882Z,5.00
2023-01-25T13:02:00.554Z,4.20
2023-01-25T13:04:39.315Z,4.10
2023-01-25T13:07:28.308Z,3.37
2023-01-25T13:10:09.015Z,3.60
2023-01-25T13:12:57.317Z,3.92
2023-01-25T13:15:40.567Z,3.37
2023-01-25T13:18:33.480Z,3.60
2023-01-25T13:21:06.416Z,3.57
2023-01-25T13:23:40.482Z,3.30
2023-01-25T13:26:28.453Z,4.63
2023-01-25T13:29:02.175Z,3.97
2023-01-25T13:31:53.049Z,4.00
2023-01-25T13:34:18.325Z,4.97
2023-01-25T13:36:48.711Z,3.65
2023-01-25T13:39:32.998Z,3.53
2023-01-25T13:42:11.675Z,5.10
2023-01-25T13:44:50.177Z,4.42
2023-01-25T13:47:22.238Z,4.97
2023-01-25T13:50:04.143Z,5.67
2023-01-25T13:52:35.452Z,5.27
2023-01-25T13:57:35.959Z,5.07
2023-01-25T14:00:11.668Z,4.72
2023-01-25T14:02:45.669Z,4.60
2023-01-25T14:05:24.021Z,4.50
2023-01-25T14:07:58.829Z,4.77
2023-01-25T14:10:30.137Z,4.53
2023-01-25T14:13:01.677Z,4.43
2023-01-25T14:15:33.594Z,4.67
2023-01-25T14:18:21.027Z,4.80
2023-01-25T14:20:53.483Z,5.13
2023-01-25T14:23:28.681Z,4.90
2023-01-25T14:26:01.246Z,4.07
2023-01-25T14:28:31.539Z,4.50
2023-01-25T14:31:06.016Z,4.43
2023-01-25T14:33:38.535Z,5.17
2023-01-25T14:36:24.341Z,4.37
2023-01-25T14:38:44.751Z,5.03
2023-01-25T14:41:38.791Z,5.35
2023-01-25T14:44:14.595Z,3.80
2023-01-25T14:46:44.340Z,5.20
2023-01-25T14:49:28.768Z,4.95
2023-01-25T14:52:07.781Z,5.20
2023-01-25T14:54:40.684Z,4.67
2023-01-25T14:57:30.044Z,5.37
2023-01-25T15:00:01.567Z,4.60
2023-01-25T15:02:43.143Z,4.22
2023-01-25T15:05:24.729Z,5.23
2023-01-25T15:08:00.678Z,4.80
2023-01-25T15:10:33.032Z,4.73
2023-01-25T15:13:15.452Z,5.27
2023-01-25T15:15:58.714Z,5.07
2023-01-25T15:18:48.615Z,6.20
2023-01-25T15:21:20.664Z,6.65
2023-01-25T15:23:52.124Z,5.83
2023-01-25T15:26:27.022Z,5.62
2023-01-25T15:28:59.046Z,5.95
2023-01-25T15:31:32.015Z,6.20
2023-01-25T15:34:02.918Z,6.40
2023-01-25T15:36:33.721Z,5.37
2023-01-25T15:39:03.478Z,6.57
2023-01-25T15:41:33.209Z,6.47
2023-01-25T15:44:03.101Z,6.90
2023-01-25T15:46:33.655Z,7.15
2023-01-25T15:49:06.718Z,6.50
2023-01-25T15:51:36.627Z,7.57
2023-01-25T15:54:07.377Z,5.57
2023-01-25T15:56:38.723Z,6.50
2023-01-25T15:59:11.106Z,6.27
2023-01-25T16:01:40.908Z,7.00
2023-01-25T16:04:13.747Z,6.07
2023-01-25T16:06:52.044Z,7.95
2023-01-25T16:09:31.022Z,6.27
2023-01-25T16:12:03.051Z,5.53
2023-01-25T16:14:32.821Z,6.90
2023-01-25T16:17:05.673Z,6.83
2023-01-25T16:19:35.863Z,6.67
2023-01-25T16:22:06.884Z,7.08
2023-01-25T16:24:39.464Z,6.87
2023-01-25T16:27:14.886Z,7.30
2023-01-25T16:29:44.662Z,8.37
2023-01-25T16:32:14.490Z,8.10
2023-01-25T16:34:44.350Z,7.23
2023-01-25T16:37:18.739Z,9.07
2023-01-25T16:39:49.548Z,9.27
2023-01-25T16:42:22.363Z,7.47
2023-01-25T16:44:51.107Z,6.60
2023-01-25T16:47:26.116Z,6.60
2023-01-25T16:49:56.396Z,6.33
2023-01-25T16:52:26.167Z,7.60
2023-01-25T16:54:56.018Z,7.67
2023-01-25T16:57:25.772Z,6.83
2023-01-25T16:59:55.917Z,8.13
2023-01-25T17:02:25.724Z,7.70
2023-01-25T17:04:55.619Z,8.00
2023-01-25T17:07:25.346Z,5.33
2023-01-25T17:09:55.219Z,7.83
2023-01-25T17:12:24.956Z,7.00
2023-01-25T17:14:54.891Z,7.00
2023-01-25T17:17:26.311Z,7.08
2023-01-25T17:22:24.934Z,8.67
2023-01-25T17:24:55.848Z,8.53
2023-01-25T17:27:25.689Z,7.97
2023-01-25T17:29:55.516Z,8.90
2023-01-25T17:32:25.402Z,8.03
2023-01-25T17:34:57.106Z,7.62
2023-01-25T17:37:26.860Z,8.53
2023-01-25T17:39:56.644Z,8.27
2023-01-25T17:42:26.413Z,8.50
2023-01-25T17:44:56.174Z,8.57
2023-01-25T17:47:26.000Z,6.77
2023-01-25T17:49:55.789Z,8.13
2023-01-25T17:52:25.528Z,9.83
2023-01-25T17:54:55.323Z,7.40
2023-01-25T17:57:26.227Z,9.38
2023-01-25T17:59:56.079Z,8.25
2023-01-25T18:02:25.945Z,8.13
2023-01-25T18:04:57.331Z,7.10
2023-01-25T18:09:55.889Z,7.78
2023-01-25T18:12:25.736Z,7.57
2023-01-25T18:14:55.779Z,7.47
2023-01-25T18:17:25.627Z,9.43
2023-01-25T18:19:55.680Z,8.35
2023-01-25T18:22:25.621Z,8.60
2023-01-25T18:24:55.655Z,6.77
2023-01-25T18:27:27.841Z,9.23
2023-01-25T18:30:09.248Z,9.93
2023-01-25T18:32:39.027Z,8.40
2023-01-25T18:35:10.291Z,9.33
2023-01-25T18:40:13.911Z,10.20
2023-01-25T18:42:45.507Z,9.93
2023-01-25T18:45:16.032Z,9.57
2023-01-25T18:47:45.842Z,8.38
2023-01-25T18:50:16.393Z,8.77
2023-01-25T18:52:46.533Z,9.30
2023-01-25T18:55:16.313Z,8.88
2023-01-25T18:57:46.065Z,7.63
2023-01-25T19:00:17.048Z,8.37
2023-01-25T19:02:47.076Z,7.22
2023-01-25T19:05:18.622Z,9.10
2023-01-25T19:07:48.374Z,7.53
2023-01-25T19:10:18.886Z,7.40
2023-01-25T19:12:48.950Z,8.73
2023-01-25T19:15:18.683Z,7.83
2023-01-25T19:17:48.434Z,7.40
2023-01-25T19:20:18.231Z,7.43
2023-01-25T19:22:48.248Z,6.40
2023-01-25T19:25:18.117Z,6.30
2023-01-25T19:27:47.897Z,7.27
2023-01-25T19:30:17.477Z,6.67
2023-01-25T19:32:47.265Z,6.33
2023-01-25T19:35:16.784Z,7.23
2023-01-25T19:37:47.348Z,6.87
2023-01-25T19:40:18.528Z,5.80
2023-01-25T19:42:48.422Z,6.83
2023-01-25T19:45:18.205Z,6.05
2023-01-25T19:47:48.037Z,6.07
2023-01-25T19:50:17.995Z,7.10
2023-01-25T19:52:48.076Z,7.22
2023-01-25T19:55:17.765Z,11.13
2023-01-25T19:57:47.789Z,7.53
2023-01-25T20:00:17.738Z,9.05
2023-01-25T20:02:47.728Z,7.13
2023-01-25T20:05:17.802Z,8.95
2023-01-25T20:07:47.545Z,9.43
2023-01-25T20:10:17.528Z,8.60
2023-01-25T20:12:47.510Z,8.47
2023-01-25T20:15:17.712Z,8.58
2023-01-25T20:17:47.223Z,8.77
2023-01-25T20:20:17.039Z,8.60
2023-01-25T20:22:48.440Z,6.70
2023-01-25T20:25:18.971Z,8.98
2023-01-25T20:27:49.067Z,7.67
2023-01-25T20:30:19.022Z,8.20
2023-01-25T20:32:48.803Z,8.33
2023-01-25T20:35:18.292Z,8.90
2023-01-25T20:37:49.420Z,10.07
2023-01-25T20:40:19.010Z,8.60
2023-01-25T20:42:49.072Z,8.73
2023-01-25T20:45:18.921Z,9.63
2023-01-25T20:47:48.702Z,9.43
2023-01-25T20:50:18.652Z,10.90
2023-01-25T20:52:48.438Z,9.17
2023-01-25T20:55:18.279Z,11.97
2023-01-25T20:57:48.104Z,11.23
2023-01-25T21:00:18.362Z,12.70
2023-01-25T21:02:47.923Z,12.20
2023-01-25T21:05:17.680Z,13.80
2023-01-25T21:07:47.490Z,12.77
2023-01-25T21:10:17.899Z,13.60
2023-01-25T21:12:47.502Z,12.63
2023-01-25T21:15:17.858Z,13.23
2023-01-25T21:17:52.780Z,12.83
2023-01-25T21:20:22.494Z,11.57
2023-01-25T21:22:52.304Z,13.27
2023-01-25T21:25:21.850Z,13.07
2023-01-25T21:27:53.300Z,13.27
2023-01-25T21:30:23.332Z,13.33
2023-01-25T21:32:53.273Z,13.83
2023-01-25T21:35:23.109Z,11.77
2023-01-25T21:37:53.374Z,12.53
2023-01-25T21:40:23.130Z,10.63
2023-01-25T21:42:52.901Z,12.00
2023-01-25T21:45:40.268Z,10.87
2023-01-25T21:48:10.078Z,12.17
2023-01-25T21:50:57.511Z,11.00
2023-01-25T21:53:27.573Z,13.70
2023-01-25T21:56:00.115Z,11.73
2023-01-25T21:58:29.883Z,14.63
2023-01-25T22:01:04.732Z,11.83
2023-01-25T22:03:34.806Z,11.78
2023-01-25T22:06:04.809Z,10.63
2023-01-25T22:08:34.879Z,11.63
2023-01-25T22:11:10.800Z,11.33
2023-01-25T22:13:41.695Z,10.93
2023-01-25T22:16:12.544Z,9.80
2023-01-25T22:18:44.078Z,10.55
2023-01-25T22:21:16.966Z,10.30
2023-01-25T22:23:48.777Z,11.78
2023-01-25T22:26:21.019Z,10.85
2023-01-25T22:28:56.360Z,10.60
2023-01-25T22:31:28.628Z,13.07
2023-01-25T22:33:59.933Z,9.70
2023-01-25T22:36:31.154Z,9.78
2023-01-25T22:41:34.173Z,10.20
2023-01-25T22:44:04.093Z,9.55
2023-01-25T22:46:33.774Z,10.57
2023-01-25T22:49:04.781Z,12.53
2023-01-25T22:51:34.753Z,10.60
2023-01-25T22:54:05.105Z,9.90
2023-01-25T22:56:35.382Z,11.40
2023-01-25T22:59:07.972Z,11.90
2023-01-25T23:01:37.753Z,13.20
2023-01-25T23:04:07.313Z,12.77
2023-01-25T23:06:37.854Z,12.93
2023-01-25T23:09:07.914Z,9.60
2023-01-25T23:11:39.104Z,12.75
2023-01-25T23:14:29.176Z,13.30
2023-01-25T23:17:16.754Z,13.93
2023-01-25T23:19:46.658Z,12.67
2023-01-25T23:22:16.487Z,12.63
2023-01-25T23:24:46.268Z,9.33
2023-01-25T23:27:16.128Z,11.73
2023-01-25T23:29:46.022Z,11.87
2023-01-25T23:32:15.749Z,10.77
2023-01-25T23:34:45.542Z,10.17
2023-01-25T23:37:16.922Z,11.90
2023-01-25T23:42:15.443Z,11.10
2023-01-25T23:44:45.306Z,10.10
2023-01-25T23:47:14.974Z,9.33
2023-01-25T23:49:44.822Z,10.03
2023-01-25T23:52:14.432Z,10.63
2023-01-25T23:54:44.228Z,10.83
2023-01-25T23:57:13.784Z,11.63
2023-01-25T23:59:43.593Z,12.00
